x

Sentry Shoal (46131) Wave Buoy

11:00pm - Tue 1st Sep 2015 All times are PDT. -7 hours from GMT.

  • Sig Wave height 1.3ft
  • Peak Period 4s
  • Wind
    7mph, 9mph gusts
  • Sea Temp 56°f
  • Air Temp 56°f
  • Sea Pressure 1005.8mb
  • Sentry Shoal
  • Sentry Shoal

More Historic Weather Station data

Upgrade to MSW Pro to gain access to the past 30 days of data for over 8000 Wavebouys and Weather Stations around the globe.

Join Pro

Comparision Forecast

View Surf forecast
   
Tue 09/01 11:00pm 1.3ft 4s 7 9 mph 1005.8mb 56f 56f
10:00pm 1.6ft 4s 7 9 mph 1005.3mb 56f 57f
9:00pm 2.5ft 4s 2 4 mph 1004.9mb 56f 56f
8:00pm 3ft 4s 16 18 mph 1003.8mb 56f 57f
7:00pm 4ft 4s 22 27 mph 1003.3mb 56f 58f
6:00pm 4ft 4s 25 31 mph 1003mb 57f 59f
5:00pm 3.5ft 4s 27 31 mph 1003.5mb 58f 58f
4:00pm 3.5ft 4s 27 34 mph 1004.2mb 58f 58f
3:00pm 3ft 4s 27 31 mph 1004.9mb 58f 58f
2:00pm 2.5ft 3s 27 31 mph 1005.5mb 58f 57f
1:00pm 1.3ft 2s 20 27 mph 1006.5mb 58f 58f
12:00pm 1.6ft 3s 20 25 mph 1006.8mb 58f 59f
11:00am 1.3ft 2s 20 22 mph 1007.1mb 58f 58f
10:00am 1ft 2s 13 18 mph 1007.1mb 58f 58f
9:00am 0.7ft 2s 7 9 mph 1007.6mb 58f 56f
8:00am 0.3ft 2s  -  2 mph 1007.7mb 59f 56f
7:00am 0.3ft 2s 4
mph
1008mb 59f 55f
6:00am 0.3ft 2s 7
mph
1008.2mb 59f 55f
5:00am 0.3ft 2s 9 13 mph 1008.1mb 59f 59f
4:00am 0.3ft 2s 9 11 mph 1008.5mb 59f 57f
3:00am 0.3ft 3s 7 9 mph 1008.7mb 58f 57f
2:00am 0.7ft 3s 4 7 mph 1008.5mb 58f 56f
1:00am 0.7ft 3s 4 7 mph 1008mb 58f 57f
12:00am 0.7ft 3s 2
mph
1007.6mb 58f 59f
Mon 08/31 11:00pm 1ft 4s 7 11 mph 1007.1mb 57f 60f
10:00pm 1ft 4s 7
mph
1006.4mb 56f 59f
9:00pm 1.3ft 4s 4
mph
1005.6mb 56f 56f
8:00pm 1.3ft 4s 2
mph
1005mb 57f 57f
7:00pm 1.6ft 4s 2
mph
1004.8mb 57f 58f
6:00pm 1.6ft 3s 9 11 mph 1004.7mb 57f 59f
5:00pm 2ft 3s 11 13 mph 1005.3mb 59f 59f
3:00pm 1.3ft 3s 11 13 mph 1007.2mb 59f 57f
2:00pm 1ft 2s 13
mph
1008.1mb 58f 57f
1:00pm 1ft 4s 13 16 mph 1008.3mb 55f 58f
12:00pm 1.3ft 4s 11 13 mph 1008.7mb 55f 57f
11:00am 1.3ft 3s 4
mph
1009.3mb 55f 55f
10:00am 1.6ft 5s 7
mph
1008.9mb 55f 56f
9:00am 1.6ft 5s 2 4 mph 1009mb 55f 56f
8:00am 2.5ft 5s 4 7 mph 1008.7mb 55f 56f
7:00am 3ft 5s 11
mph
1008.3mb 55f 56f
6:00am 3.5ft 5s 11 16 mph 1007.8mb 55f 56f
5:00am 3.5ft 5s 13 18 mph 1007.7mb 55f 57f
4:00am 3.5ft 4s 13 20 mph 1007.5mb 55f 57f
3:00am 3ft 4s 16 22 mph 1007.3mb 55f 58f
2:00am 3.5ft 4s 22 27 mph 1007mb 54f 58f
1:00am 2.5ft 3s 18 20 mph 1007.3mb 54f 57f
12:00am 2.5ft 4s 13 16 mph 1007.9mb 54f 56f
Sun 08/30 11:00pm 3.5ft 4s 16 20 mph 1007.9mb 54f 57f
10:00pm 3ft 4s 27 29 mph 1007.3mb 54f 58f
9:00pm 2.5ft 4s 25 29 mph 1007.7mb 54f 58f
8:00pm 2.5ft 4s 20 22 mph 1008mb 54f 58f
7:00pm 2.5ft 4s 22 29 mph 1007.7mb 55f 58f
6:00pm 3.5ft 4s 22 27 mph 1007.9mb 55f 58f
5:00pm 3ft 4s 22 27 mph 1008.2mb 55f 58f
4:00pm 3ft 4s 22 27 mph 1008.7mb 55f 58f
3:00pm 2.5ft 4s 22 27 mph 1008.8mb 55f 58f
2:00pm 2.5ft 4s 20 22 mph 1009.2mb 55f 59f
1:00pm 2.5ft 4s 20 22 mph 1009.1mb 56f 59f
12:00pm 2.5ft 3s 18 22 mph 1009mb 56f 58f
11:00am 1.3ft 3s 16 18 mph 1008.8mb 56f 58f
10:00am 1.3ft 3s 16 18 mph 1008.4mb 56f 57f
9:00am 1ft 3s 16 18 mph 1007.6mb 56f 57f
8:00am 1.3ft 3s 13 16 mph 1007.1mb 56f 56f
7:00am 1.3ft 3s 11 13 mph 1006.4mb 56f 56f
6:00am 1.6ft 3s 9 11 mph 1006mb 55f 56f
5:00am 2ft 3s 11
mph
1005.4mb 55f 56f
4:00am 1.6ft 3s 11 13 mph 1005mb 55f 57f
3:00am 2ft 4s 9 11 mph 1004.5mb 55f 56f
2:00am 2ft 4s 9 11 mph 1004mb 55f 57f
1:00am 3ft 4s 9
mph
1004mb 56f 57f
12:00am 3.5ft 5s 18 22 mph 1003.2mb 56f 58f
Sat 08/29 11:00pm 4.5ft 5s 20 27 mph 1002.9mb 56f 59f
10:00pm 3.5ft 5s 18 22 mph 1002.2mb 56f 58f
9:00pm 3ft 4s 25 31 mph 1001.4mb 56f 59f
8:00pm 2.5ft 4s 22 27 mph 1000.4mb 55f 59f
7:00pm 3.5ft 4s 16 18 mph 1000.7mb 55f 58f
6:00pm 4.5ft 5s 20 25 mph 1000.2mb 54f 58f
5:00pm 5ft 6s 25 31 mph 999.2mb 54f 59f
4:00pm 5.5ft 6s 25 34 mph 998.2mb 55f 64f
3:00pm 5.5ft 5s 29 38 mph 996mb 55f 61f
2:00pm 4.5ft 4s 25 27 mph 994.1mb 55f 60f
1:00pm 4.5ft 6s 9 13 mph 992.4mb 56f 59f
12:00pm 5ft 6s 20 27 mph 993.1mb 57f 60f
11:00am 5.5ft 5s 31 36 mph 993.6mb 58f 60f
10:00am 5ft 5s 31 38 mph 993.1mb 59f 62f
9:00am 3.5ft 4s 25 31 mph 992.9mb 60f 62f
8:00am 1.3ft 2s 22 27 mph 992.9mb 60f 61f